createdAt,value
2019-02-23T00:02:19.796Z,4.20
2019-02-23T00:04:46.640Z,5.53
2019-02-23T00:07:13.579Z,5.30
2019-02-23T00:09:40.766Z,4.70
2019-02-23T00:12:07.703Z,4.30
2019-02-23T00:14:34.705Z,4.03
2019-02-23T00:17:01.589Z,4.83
2019-02-23T00:19:28.784Z,4.60
2019-02-23T00:21:55.672Z,4.90
2019-02-23T00:24:23.038Z,5.20
2019-02-23T00:26:50.164Z,4.40
2019-02-23T00:29:17.146Z,4.93
2019-02-23T00:31:51.637Z,4.60
2019-02-23T00:34:18.607Z,4.93
2019-02-23T00:36:45.460Z,5.00
2019-02-23T00:39:12.315Z,4.77
2019-02-23T00:41:39.162Z,4.70
2019-02-23T00:44:06.243Z,4.73
2019-02-23T00:46:33.158Z,5.13
2019-02-23T00:49:00.328Z,4.50
2019-02-23T00:51:27.223Z,5.20
2019-02-23T00:53:54.101Z,4.70
2019-02-23T00:56:20.989Z,4.00
2019-02-23T00:58:47.828Z,4.57
2019-02-23T01:01:14.615Z,4.20
2019-02-23T01:03:41.461Z,4.77
2019-02-23T01:06:08.256Z,3.87
2019-02-23T01:08:35.060Z,4.50
2019-02-23T01:11:02.285Z,4.37
2019-02-23T01:13:29.342Z,5.40
2019-02-23T01:15:58.428Z,4.30
2019-02-23T01:18:25.105Z,4.00
2019-02-23T01:20:52.000Z,5.20
2019-02-23T01:23:18.854Z,4.40
2019-02-23T01:25:45.650Z,4.20
2019-02-23T01:28:12.570Z,3.80
2019-02-23T01:30:39.384Z,4.87
2019-02-23T01:33:06.311Z,5.30
2019-02-23T01:35:33.099Z,5.20
2019-02-23T01:37:59.997Z,4.47
2019-02-23T01:40:27.240Z,5.57
2019-02-23T01:42:54.635Z,4.80
2019-02-23T01:45:21.558Z,4.90
2019-02-23T01:47:48.394Z,4.80
2019-02-23T01:50:15.520Z,5.20
2019-02-23T01:52:42.662Z,5.83
2019-02-23T01:55:10.200Z,5.00
2019-02-23T01:57:37.277Z,5.50
2019-02-23T02:00:06.231Z,4.90
2019-02-23T02:02:33.116Z,5.40
2019-02-23T02:05:00.140Z,4.73
2019-02-23T02:07:27.112Z,5.60
2019-02-23T02:09:54.129Z,6.10
2019-02-23T02:12:22.085Z,4.67
2019-02-23T02:14:48.988Z,4.63
2019-02-23T02:17:15.772Z,5.27
2019-02-23T02:19:42.647Z,5.37
2019-02-23T02:22:09.500Z,5.90
2019-02-23T02:24:36.331Z,5.90
2019-02-23T02:27:03.427Z,5.10
2019-02-23T02:29:30.273Z,5.77
2019-02-23T02:31:57.081Z,6.40
2019-02-23T02:34:24.289Z,5.00
2019-02-23T02:36:51.113Z,5.43
2019-02-23T02:39:18.014Z,6.07
2019-02-23T02:41:44.946Z,5.23
2019-02-23T02:44:11.916Z,5.67
2019-02-23T02:46:38.780Z,6.23
2019-02-23T02:49:06.796Z,5.00
2019-02-23T02:51:33.644Z,5.80
2019-02-23T02:54:00.566Z,5.37
2019-02-23T02:56:27.524Z,6.63
2019-02-23T02:58:54.506Z,5.60
2019-02-23T03:01:21.426Z,5.70
2019-02-23T03:03:48.642Z,5.97
2019-02-23T03:06:15.657Z,5.60
2019-02-23T03:08:42.501Z,5.53
2019-02-23T03:11:09.582Z,5.50
2019-02-23T03:13:36.499Z,4.70
2019-02-23T03:16:03.456Z,5.57
2019-02-23T03:18:30.308Z,6.37
2019-02-23T03:20:57.113Z,6.40
2019-02-23T03:23:24.112Z,5.77
2019-02-23T03:25:51.020Z,6.30
2019-02-23T03:28:17.974Z,6.30
2019-02-23T03:30:45.090Z,6.67
2019-02-23T03:33:12.033Z,6.57
2019-02-23T03:35:39.019Z,6.50
2019-02-23T03:38:05.869Z,6.70
2019-02-23T03:40:32.708Z,6.13
2019-02-23T03:42:59.548Z,6.23
2019-02-23T03:45:26.375Z,6.00
2019-02-23T03:47:53.210Z,6.17
2019-02-23T03:50:20.049Z,7.10
2019-02-23T03:52:46.996Z,7.53
2019-02-23T03:55:14.069Z,6.70
2019-02-23T03:57:40.953Z,7.10
2019-02-23T04:00:07.894Z,7.63
2019-02-23T04:02:34.702Z,8.50
2019-02-23T04:05:01.496Z,7.23
2019-02-23T04:07:28.388Z,7.70
2019-02-23T04:09:55.441Z,8.23
2019-02-23T04:12:22.640Z,7.60
2019-02-23T04:14:49.465Z,7.80
2019-02-23T04:17:16.455Z,7.97
2019-02-23T04:19:43.318Z,7.80
2019-02-23T04:22:10.175Z,7.60
2019-02-23T04:24:37.283Z,7.53
2019-02-23T04:27:04.072Z,8.40
2019-02-23T04:29:30.904Z,7.47
2019-02-23T04:31:57.853Z,8.47
2019-02-23T04:34:25.053Z,8.20
2019-02-23T04:36:51.866Z,7.20
2019-02-23T04:39:18.649Z,7.40
2019-02-23T04:41:45.498Z,9.13
2019-02-23T04:44:12.316Z,7.80
2019-02-23T04:46:39.211Z,8.20
2019-02-23T04:49:06.001Z,8.73
2019-02-23T04:51:32.814Z,7.90
2019-02-23T04:53:59.862Z,8.00
2019-02-23T04:56:26.772Z,8.27
2019-02-23T04:58:53.644Z,7.80
2019-02-23T05:01:20.614Z,8.63
2019-02-23T05:03:47.477Z,8.23
2019-02-23T05:06:14.339Z,7.00
2019-02-23T05:08:41.157Z,7.30
2019-02-23T05:11:07.939Z,7.80
2019-02-23T05:13:34.729Z,7.20
2019-02-23T05:16:01.757Z,8.23
2019-02-23T05:18:28.552Z,7.47
2019-02-23T05:20:55.328Z,7.70
2019-02-23T05:23:22.120Z,7.30
2019-02-23T05:25:48.937Z,8.20
2019-02-23T05:28:15.716Z,8.60
2019-02-23T05:30:42.636Z,7.63
2019-02-23T05:33:09.490Z,8.63
2019-02-23T05:35:36.368Z,8.17
2019-02-23T05:38:03.259Z,7.20
2019-02-23T05:40:30.148Z,8.07
2019-02-23T05:43:01.039Z,7.70
2019-02-23T05:45:25.977Z,8.20
2019-02-23T05:47:52.806Z,8.27
2019-02-23T05:50:19.575Z,7.70
2019-02-23T05:52:46.405Z,8.10
2019-02-23T05:55:13.309Z,8.80
2019-02-23T05:57:40.217Z,8.37
2019-02-23T06:00:07.839Z,8.07
2019-02-23T06:02:34.721Z,8.60
2019-02-23T06:05:01.504Z,8.70
2019-02-23T06:07:28.506Z,8.23
2019-02-23T06:09:55.276Z,8.27
2019-02-23T06:12:22.109Z,9.37
2019-02-23T06:14:48.935Z,8.37
2019-02-23T06:17:15.753Z,8.67
2019-02-23T06:19:42.625Z,9.10
2019-02-23T06:22:09.659Z,9.67
2019-02-23T06:24:36.498Z,9.23
2019-02-23T06:27:03.285Z,8.13
2019-02-23T06:29:30.121Z,8.73
2019-02-23T06:31:56.902Z,9.50
2019-02-23T06:34:23.776Z,9.27
2019-02-23T06:36:50.617Z,8.57
2019-02-23T06:39:17.425Z,8.63
2019-02-23T06:41:44.301Z,8.70
2019-02-23T06:44:11.096Z,9.30
2019-02-23T06:46:38.024Z,9.53
2019-02-23T06:49:04.820Z,7.53
2019-02-23T06:51:31.804Z,8.10
2019-02-23T06:53:58.588Z,7.87
2019-02-23T06:56:25.364Z,8.70
2019-02-23T06:58:52.168Z,9.67
2019-02-23T07:01:18.944Z,8.37
2019-02-23T07:03:45.783Z,9.37
2019-02-23T07:06:12.837Z,8.97
2019-02-23T07:08:39.674Z,9.20
2019-02-23T07:11:06.479Z,9.00
2019-02-23T07:13:33.402Z,9.10
2019-02-23T07:16:00.192Z,8.70
2019-02-23T07:18:26.997Z,8.00
2019-02-23T07:20:53.841Z,7.57
2019-02-23T07:23:20.630Z,8.00
2019-02-23T07:25:47.510Z,8.30
2019-02-23T07:28:14.443Z,7.77
2019-02-23T07:30:41.308Z,9.53
2019-02-23T07:33:08.129Z,11.20
2019-02-23T07:35:34.933Z,13.37
2019-02-23T07:38:01.758Z,12.70
2019-02-23T07:40:28.680Z,8.57
2019-02-23T07:42:55.509Z,9.60
2019-02-23T07:45:22.319Z,7.77
2019-02-23T07:47:49.163Z,8.23
2019-02-23T07:50:16.219Z,9.27
2019-02-23T07:52:43.122Z,8.10
2019-02-23T07:55:09.949Z,8.60
2019-02-23T07:57:36.803Z,7.63
2019-02-23T08:00:03.832Z,7.87
2019-02-23T08:02:30.668Z,9.73
2019-02-23T08:04:57.565Z,8.90
2019-02-23T08:07:24.471Z,10.03
2019-02-23T08:09:51.265Z,8.17
2019-02-23T08:12:18.365Z,8.27
2019-02-23T08:14:45.237Z,7.70
2019-02-23T08:17:12.326Z,8.30
2019-02-23T08:19:39.132Z,8.03
2019-02-23T08:22:05.954Z,7.97
2019-02-23T08:24:32.847Z,8.70
2019-02-23T08:26:59.672Z,8.60
2019-02-23T08:29:26.516Z,7.90
2019-02-23T08:31:53.414Z,9.40
2019-02-23T08:34:20.360Z,9.13
2019-02-23T08:36:47.165Z,9.10
2019-02-23T08:39:14.029Z,10.10
2019-02-23T08:41:43.292Z,9.60
2019-02-23T08:44:09.762Z,8.90
2019-02-23T08:46:36.604Z,11.00
2019-02-23T08:49:03.439Z,12.10
2019-02-23T08:51:30.260Z,10.60
2019-02-23T08:53:57.153Z,9.70
2019-02-23T08:56:23.948Z,10.13
2019-02-23T08:58:50.834Z,8.60
2019-02-23T09:01:18.016Z,8.60
2019-02-23T09:03:44.888Z,8.63
2019-02-23T09:06:11.728Z,9.60
2019-02-23T09:08:38.590Z,8.77
2019-02-23T09:11:05.617Z,8.50
2019-02-23T09:13:32.426Z,9.00
2019-02-23T09:15:59.241Z,8.80
2019-02-23T09:18:26.040Z,9.37
2019-02-23T09:20:52.849Z,8.80
2019-02-23T09:23:19.639Z,10.20
2019-02-23T09:25:46.463Z,8.63
2019-02-23T09:28:13.333Z,10.47
2019-02-23T09:30:40.189Z,10.10
2019-02-23T09:33:07.107Z,9.90
2019-02-23T09:35:33.977Z,9.23
2019-02-23T09:38:00.833Z,9.20
2019-02-23T09:40:27.930Z,10.10
2019-02-23T09:42:54.699Z,9.70
2019-02-23T09:45:21.513Z,9.10
2019-02-23T09:47:48.656Z,9.63
2019-02-23T09:50:15.701Z,9.77
2019-02-23T09:52:42.608Z,8.83
2019-02-23T09:55:09.569Z,8.27
2019-02-23T09:57:36.453Z,7.83
2019-02-23T10:00:03.541Z,10.47
2019-02-23T10:02:30.406Z,8.87
2019-02-23T10:04:57.213Z,7.57
2019-02-23T10:07:24.026Z,7.20
2019-02-23T10:09:50.932Z,8.20
2019-02-23T10:12:17.728Z,7.17
2019-02-23T10:14:44.600Z,7.50
2019-02-23T10:17:11.429Z,7.50
2019-02-23T10:19:38.248Z,7.10
2019-02-23T10:22:05.100Z,6.17
2019-02-23T10:24:31.937Z,8.20
2019-02-23T10:26:58.734Z,8.00
2019-02-23T10:29:25.552Z,8.90
2019-02-23T10:31:52.404Z,8.07
2019-02-23T10:34:19.476Z,9.00
2019-02-23T10:36:46.328Z,8.30
2019-02-23T10:39:13.277Z,6.83
2019-02-23T10:41:40.152Z,6.67
2019-02-23T10:44:07.226Z,6.80
2019-02-23T10:46:34.429Z,7.60
2019-02-23T10:49:01.307Z,7.13
2019-02-23T10:51:28.213Z,7.40
2019-02-23T10:53:55.139Z,10.57
2019-02-23T10:56:22.559Z,9.70
2019-02-23T10:58:49.431Z,7.93
2019-02-23T11:01:16.502Z,10.77
2019-02-23T11:03:43.361Z,10.13
2019-02-23T11:06:10.332Z,7.30
2019-02-23T11:08:37.486Z,7.17
2019-02-23T11:11:04.494Z,8.40
2019-02-23T11:13:31.503Z,8.00
2019-02-23T11:15:58.610Z,7.73
2019-02-23T11:18:25.396Z,8.63
2019-02-23T11:20:53.182Z,8.43
2019-02-23T11:23:20.342Z,8.60
2019-02-23T11:25:47.256Z,8.90
2019-02-23T11:28:14.093Z,6.80
2019-02-23T11:30:40.890Z,7.53
2019-02-23T11:33:07.721Z,8.87
2019-02-23T11:35:34.553Z,8.10
2019-02-23T11:38:01.395Z,6.97
2019-02-23T11:40:28.259Z,7.10
2019-02-23T11:42:55.457Z,18.67
2019-02-23T11:45:22.390Z,7.80
2019-02-23T11:47:49.259Z,7.00
2019-02-23T11:50:16.193Z,8.83
2019-02-23T11:52:43.101Z,8.60
2019-02-23T11:55:10.173Z,10.57
2019-02-23T11:57:37.530Z,9.33
2019-02-23T12:00:04.481Z,7.90
2019-02-23T12:02:31.311Z,8.17
2019-02-23T12:04:58.104Z,9.33
2019-02-23T12:07:25.313Z,7.97
2019-02-23T12:09:52.524Z,7.90
2019-02-23T12:12:19.466Z,9.20
2019-02-23T12:14:46.365Z,8.70
2019-02-23T12:17:13.346Z,8.50
2019-02-23T12:19:40.262Z,8.70
2019-02-23T12:22:12.403Z,10.27
2019-02-23T12:24:35.978Z,8.90
2019-02-23T12:27:03.041Z,10.00
2019-02-23T12:29:29.909Z,8.07
2019-02-23T12:31:56.749Z,9.40
2019-02-23T12:34:23.652Z,8.03
2019-02-23T12:36:50.537Z,7.93
2019-02-23T12:39:17.346Z,7.47
2019-02-23T12:41:44.160Z,6.57
2019-02-23T12:44:11.081Z,7.93
2019-02-23T12:46:38.094Z,6.93
2019-02-23T12:49:04.928Z,6.40
2019-02-23T12:51:32.216Z,7.07
2019-02-23T12:53:59.060Z,7.80
2019-02-23T12:56:25.958Z,8.50
2019-02-23T12:58:53.004Z,8.73
2019-02-23T13:01:20.400Z,6.70
2019-02-23T13:03:47.209Z,10.60
2019-02-23T13:06:14.589Z,7.27
2019-02-23T13:09:00.043Z,7.40
2019-02-23T13:11:46.956Z,8.10
2019-02-23T13:14:21.737Z,7.30
2019-02-23T13:16:58.807Z,6.30
2019-02-23T13:20:00.897Z,7.50
2019-02-23T13:22:37.439Z,7.17
2019-02-23T13:25:35.935Z,6.80
2019-02-23T13:28:28.389Z,9.43
2019-02-23T13:31:27.528Z,6.40
2019-02-23T13:34:08.562Z,9.70
2019-02-23T13:36:54.284Z,5.87
2019-02-23T13:39:24.522Z,7.23
2019-02-23T13:41:59.383Z,7.00
2019-02-23T13:44:49.139Z,7.20
2019-02-23T13:47:41.710Z,6.83
2019-02-23T13:50:34.268Z,8.30
2019-02-23T13:53:04.945Z,7.70
2019-02-23T13:55:39.707Z,6.77
2019-02-23T13:58:10.283Z,6.77
2019-02-23T14:00:55.822Z,6.30
2019-02-23T14:03:31.227Z,7.43
2019-02-23T14:06:02.018Z,7.30
2019-02-23T14:08:41.068Z,7.07
2019-02-23T14:11:28.124Z,7.73
2019-02-23T14:14:03.990Z,8.40
2019-02-23T14:16:54.099Z,7.13
2019-02-23T14:19:43.341Z,9.47
2019-02-23T14:22:29.971Z,6.33
2019-02-23T14:25:03.647Z,7.77
2019-02-23T14:27:48.982Z,9.60
2019-02-23T14:30:45.174Z,9.27
2019-02-23T14:33:31.775Z,6.40
2019-02-23T14:36:08.523Z,6.03
2019-02-23T14:38:54.189Z,7.00
2019-02-23T14:41:39.797Z,8.10
2019-02-23T14:44:29.572Z,8.30
2019-02-23T14:47:09.117Z,6.50
2019-02-23T14:50:11.010Z,7.83
2019-02-23T14:52:56.524Z,7.00
2019-02-23T14:55:39.819Z,6.47
2019-02-23T14:58:29.065Z,6.63
2019-02-23T15:01:21.298Z,6.57
2019-02-23T15:04:20.133Z,11.23
2019-02-23T15:07:00.472Z,7.70
2019-02-23T15:09:45.774Z,6.27
2019-02-23T15:12:21.578Z,5.60
2019-02-23T15:15:17.473Z,9.03
2019-02-23T15:18:19.402Z,7.90
2019-02-23T15:21:21.402Z,17.07
2019-02-23T15:24:06.528Z,17.63
2019-02-23T15:26:49.806Z,7.90
2019-02-23T15:29:24.187Z,7.30
2019-02-23T15:32:10.969Z,6.63
2019-02-23T15:34:57.925Z,7.00
2019-02-23T15:37:33.934Z,7.20
2019-02-23T15:40:18.244Z,7.70
2019-02-23T15:43:04.854Z,8.10
2019-02-23T15:45:46.603Z,7.07
2019-02-23T15:48:21.185Z,8.20
2019-02-23T15:50:48.125Z,6.60
2019-02-23T15:53:15.019Z,6.90
2019-02-23T15:55:41.897Z,6.50
2019-02-23T15:58:08.734Z,6.30
2019-02-23T16:00:35.584Z,6.80
2019-02-23T16:03:02.622Z,7.00
2019-02-23T16:05:29.716Z,6.33
2019-02-23T16:07:56.546Z,7.40
2019-02-23T16:10:23.701Z,6.97
2019-02-23T16:12:50.504Z,6.77
2019-02-23T16:15:17.577Z,8.60
2019-02-23T16:17:44.517Z,9.57
2019-02-23T16:20:11.429Z,8.60
2019-02-23T16:22:38.300Z,10.00
2019-02-23T16:25:05.531Z,10.60
2019-02-23T16:27:33.188Z,9.50
2019-02-23T16:30:00.107Z,9.00
2019-02-23T16:32:27.399Z,9.80
2019-02-23T16:34:54.401Z,9.97
2019-02-23T16:37:21.787Z,10.40
2019-02-23T16:39:48.801Z,9.17
2019-02-23T16:42:16.044Z,9.10
2019-02-23T16:44:43.034Z,9.33
2019-02-23T16:47:10.042Z,9.30
2019-02-23T16:49:37.084Z,8.77
2019-02-23T16:52:04.462Z,9.80
2019-02-23T16:54:31.561Z,9.37
2019-02-23T16:56:58.625Z,9.17
2019-02-23T16:59:25.580Z,9.60
2019-02-23T17:01:52.672Z,9.30
2019-02-23T17:04:19.653Z,9.57
2019-02-23T17:06:46.664Z,10.33
2019-02-23T17:09:13.867Z,12.40
2019-02-23T17:11:40.724Z,10.03
2019-02-23T17:14:07.576Z,12.60
2019-02-23T17:16:34.638Z,9.80
2019-02-23T17:19:01.788Z,9.93
2019-02-23T17:21:28.943Z,10.30
2019-02-23T17:23:55.875Z,9.90
2019-02-23T17:26:22.841Z,10.90
2019-02-23T17:28:49.897Z,10.90
2019-02-23T17:31:17.118Z,10.30
2019-02-23T17:33:44.602Z,10.90
2019-02-23T17:36:11.864Z,10.33
2019-02-23T17:38:39.295Z,9.30
2019-02-23T17:41:06.676Z,10.10
2019-02-23T17:43:34.247Z,10.10
2019-02-23T17:46:01.683Z,13.70
2019-02-23T17:50:56.692Z,10.17
2019-02-23T17:53:24.025Z,10.87
2019-02-23T17:55:51.656Z,10.50
2019-02-23T17:58:19.426Z,10.13
2019-02-23T18:00:46.814Z,10.20
2019-02-23T18:03:14.653Z,9.73
2019-02-23T18:05:41.932Z,10.80
2019-02-23T18:08:09.258Z,9.90
2019-02-23T18:10:36.303Z,10.03
2019-02-23T18:13:03.513Z,10.00
2019-02-23T18:15:30.618Z,10.80
2019-02-23T18:17:57.744Z,11.27
2019-02-23T18:20:24.816Z,10.97
2019-02-23T18:22:51.851Z,11.30
2019-02-23T18:25:19.014Z,11.93
2019-02-23T18:27:46.204Z,10.37
2019-02-23T18:30:14.159Z,11.60
2019-02-23T18:32:41.264Z,11.27
2019-02-23T18:35:08.187Z,10.23
2019-02-23T18:37:35.055Z,9.20
2019-02-23T18:40:02.386Z,10.57
2019-02-23T18:42:29.737Z,11.03
2019-02-23T18:44:56.768Z,10.23
2019-02-23T18:47:23.870Z,11.47
2019-02-23T18:49:51.038Z,11.80
2019-02-23T18:52:18.210Z,13.13
2019-02-23T18:54:45.452Z,12.80
2019-02-23T18:57:12.510Z,12.87
2019-02-23T18:59:39.396Z,12.03
2019-02-23T19:02:06.300Z,12.50
2019-02-23T19:04:33.214Z,12.27
2019-02-23T19:07:02.504Z,12.70
2019-02-23T19:09:35.934Z,13.73
2019-02-23T19:12:23.241Z,15.37
2019-02-23T19:14:51.301Z,14.57
2019-02-23T19:17:18.602Z,13.77
2019-02-23T19:19:45.774Z,13.70
2019-02-23T19:22:13.173Z,13.40
2019-02-23T19:24:41.038Z,15.70
2019-02-23T19:27:08.278Z,26.27
2019-02-23T19:29:36.176Z,17.53
2019-02-23T19:32:04.847Z,15.00
2019-02-23T19:34:33.519Z,13.70
2019-02-23T19:37:00.460Z,25.53
2019-02-23T19:39:27.304Z,15.90
2019-02-23T19:41:54.119Z,15.17
2019-02-23T19:44:20.952Z,13.73
2019-02-23T19:47:00.173Z,13.97
2019-02-23T19:49:28.639Z,13.70
2019-02-23T19:51:57.023Z,13.60
2019-02-23T19:54:25.918Z,13.40
2019-02-23T19:56:54.114Z,13.80
2019-02-23T19:59:21.087Z,13.03
2019-02-23T20:01:48.074Z,12.50
2019-02-23T20:04:14.970Z,13.40
2019-02-23T20:06:41.790Z,11.70
2019-02-23T20:09:08.755Z,12.60
2019-02-23T20:11:35.624Z,12.03
2019-02-23T20:14:02.500Z,10.53
2019-02-23T20:16:29.431Z,9.80
2019-02-23T20:18:56.329Z,10.47
2019-02-23T20:21:23.200Z,12.97
2019-02-23T20:23:50.012Z,9.80
2019-02-23T20:26:16.836Z,11.90
2019-02-23T20:28:43.708Z,10.37
2019-02-23T20:31:10.543Z,10.97
2019-02-23T20:33:37.415Z,13.03
2019-02-23T20:36:04.360Z,12.20
2019-02-23T20:38:31.201Z,9.40
2019-02-23T20:40:58.167Z,10.10
2019-02-23T20:43:25.047Z,11.40
2019-02-23T20:45:52.212Z,15.10
2019-02-23T20:48:19.190Z,9.73
2019-02-23T20:50:46.106Z,9.87
2019-02-23T20:53:13.294Z,10.50
2019-02-23T20:55:40.356Z,10.30
2019-02-23T20:58:07.244Z,10.43
2019-02-23T21:00:34.093Z,10.33
2019-02-23T21:03:00.891Z,9.50
2019-02-23T21:05:27.794Z,10.50
2019-02-23T21:07:54.667Z,11.00
2019-02-23T21:10:22.583Z,9.50
2019-02-23T21:12:49.528Z,11.70
2019-02-23T21:15:16.430Z,10.93
2019-02-23T21:17:43.315Z,10.63
2019-02-23T21:20:10.154Z,10.57
2019-02-23T21:22:37.030Z,9.57
2019-02-23T21:25:03.961Z,9.40
2019-02-23T21:27:31.936Z,10.60
2019-02-23T21:29:59.261Z,9.43
2019-02-23T21:32:26.147Z,13.87
2019-02-23T21:34:53.122Z,13.87
2019-02-23T21:37:20.064Z,14.10
2019-02-23T21:39:47.090Z,10.57
2019-02-23T21:42:13.898Z,13.67
2019-02-23T21:44:40.842Z,12.23
2019-02-23T21:47:08.355Z,12.13
2019-02-23T21:49:35.253Z,10.50
2019-02-23T21:52:02.318Z,10.27
2019-02-23T21:54:29.155Z,11.20
2019-02-23T21:56:56.645Z,11.00
2019-02-23T21:59:23.735Z,11.33
2019-02-23T22:01:50.857Z,12.23
2019-02-23T22:04:17.798Z,11.23
2019-02-23T22:06:44.673Z,13.20
2019-02-23T22:09:11.529Z,13.57
2019-02-23T22:11:38.403Z,14.13
2019-02-23T22:14:05.556Z,15.47
2019-02-23T22:16:32.516Z,11.90
2019-02-23T22:18:59.310Z,13.70
2019-02-23T22:21:26.330Z,15.17
2019-02-23T22:23:54.404Z,14.30
2019-02-23T22:26:21.236Z,15.00
2019-02-23T22:28:48.164Z,14.57
2019-02-23T22:31:15.090Z,14.13
2019-02-23T22:33:41.917Z,13.30
2019-02-23T22:36:08.805Z,14.50
2019-02-23T22:38:35.705Z,14.93
2019-02-23T22:41:02.548Z,16.73
2019-02-23T22:43:29.378Z,14.83
2019-02-23T22:45:56.157Z,14.70
2019-02-23T22:48:22.987Z,13.87
2019-02-23T22:50:49.846Z,16.13
2019-02-23T22:53:16.637Z,13.90
2019-02-23T22:55:43.550Z,15.10
2019-02-23T22:58:10.507Z,16.27
2019-02-23T23:00:55.832Z,31.07
2019-02-23T23:03:22.943Z,23.23
2019-02-23T23:05:49.941Z,14.67
2019-02-23T23:08:16.793Z,14.97
2019-02-23T23:10:43.611Z,15.53
2019-02-23T23:13:10.481Z,20.77
2019-02-23T23:15:37.304Z,14.20
2019-02-23T23:18:04.588Z,18.30
2019-02-23T23:20:31.485Z,14.33
2019-02-23T23:22:58.351Z,17.20
2019-02-23T23:25:25.460Z,12.47
2019-02-23T23:27:52.311Z,12.90
2019-02-23T23:30:19.427Z,11.73
2019-02-23T23:32:46.397Z,15.83
2019-02-23T23:35:13.244Z,13.30
2019-02-23T23:37:40.125Z,14.23
2019-02-23T23:40:07.240Z,13.03
2019-02-23T23:42:34.016Z,11.73
2019-02-23T23:45:00.828Z,12.80
2019-02-23T23:47:27.693Z,13.60
2019-02-23T23:49:54.542Z,18.73
2019-02-23T23:52:21.356Z,12.50
2019-02-23T23:54:48.237Z,17.07
2019-02-23T23:57:15.088Z,13.80
2019-02-23T23:59:41.956Z,12.93
